Time;durP1;ratioP1;P1;durP2;ratioP2;P2;SDS_P1;SDS_P2;PMS_P1;PMS_P2;Temp;Humidity;BMP_temperature;BMP_pressure;BME280_temperature;BME280_humidity;BME280_pressure;Samples;Min_cycle;Max_cycle;Signal;HPM_P1;HPM_P2
2024/03/03 00:01:13;;;;;;;13.13;9.80;;;;;;;7.09;93.80;97429.72;5090891;28;40466;-82
2024/03/03 00:03:40;;;;;;;15.30;10.27;;;;;;;7.07;94.76;97428.13;5091183;28;42794;-77
2024/03/03 00:06:08;;;;;;;15.40;10.97;;;;;;;7.02;93.95;97417.97;5091008;28;42106;-82
2024/03/03 00:08:35;;;;;;;13.60;9.83;;;;;;;6.99;93.35;97412.06;5091489;28;42024;-81
2024/03/03 00:11:04;;;;;;;16.63;9.77;;;;;;;7.03;93.37;97421.44;5073873;28;39969;-81
2024/03/03 00:13:32;;;;;;;13.67;9.83;;;;;;;7.01;93.03;97420.69;5092351;28;42583;-81
2024/03/03 00:15:59;;;;;;;14.00;9.87;;;;;;;6.96;93.11;97414.91;5090240;28;44123;-79
2024/03/03 00:18:28;;;;;;;16.37;10.30;;;;;;;6.95;93.12;97419.31;5074172;28;41034;-81
2024/03/03 00:20:56;;;;;;;14.87;10.20;;;;;;;6.94;93.31;97422.06;5073781;28;40163;-80
2024/03/03 00:23:24;;;;;;;14.63;9.33;;;;;;;6.89;95.04;97413.66;5092207;28;42021;-83
2024/03/03 00:25:51;;;;;;;13.97;9.43;;;;;;;6.88;95.92;97404.09;5090444;28;41690;-80
2024/03/03 00:28:19;;;;;;;15.73;9.80;;;;;;;6.85;94.62;97403.34;5091187;28;42281;-83
2024/03/03 00:30:46;;;;;;;16.10;10.33;;;;;;;6.83;94.57;97405.25;5094153;28;40705;-82
2024/03/03 00:33:14;;;;;;;15.33;9.73;;;;;;;6.73;94.31;97388.44;5077731;28;41730;-82
2024/03/03 00:35:42;;;;;;;13.60;9.13;;;;;;;6.81;94.15;97401.88;5094145;28;42663;-83
2024/03/03 00:38:11;;;;;;;13.90;9.87;;;;;;;6.76;94.42;97385.59;5077487;28;41103;-85
2024/03/03 00:40:40;;;;;;;14.87;9.90;;;;;;;6.81;93.66;97395.78;5094316;28;40091;-81
2024/03/03 00:43:07;;;;;;;16.13;9.33;;;;;;;6.78;92.95;97396.84;5095401;28;42520;-82
2024/03/03 00:45:35;;;;;;;14.33;9.00;;;;;;;6.78;92.48;97409.16;5077229;28;42828;-79
2024/03/03 00:48:03;;;;;;;12.23;9.03;;;;;;;6.76;92.81;97400.53;5095420;28;42149;-80
2024/03/03 00:50:30;;;;;;;14.33;9.47;;;;;;;6.73;92.28;97400.75;5077470;28;38892;-79
2024/03/03 00:53:00;;;;;;;13.00;8.30;;;;;;;6.71;93.01;97397.38;5094305;28;41649;-80
2024/03/03 00:55:27;;;;;;;12.47;9.27;;;;;;;6.69;92.51;97402.75;5094096;28;43735;-83
2024/03/03 00:57:55;;;;;;;14.93;8.90;;;;;;;6.66;92.35;97397.72;5076835;28;42274;-82
2024/03/03 01:00:22;;;;;;;14.97;9.47;;;;;;;6.64;92.01;97394.34;5077027;28;38931;-78
2024/03/03 01:02:50;;;;;;;14.37;8.73;;;;;;;6.63;91.70;97392.66;5095028;28;41665;-79
2024/03/03 01:05:17;;;;;;;13.67;9.27;;;;;;;6.55;91.38;97384.47;5094104;28;42668;-84
2024/03/03 01:07:45;;;;;;;12.27;8.27;;;;;;;6.60;91.28;97387.59;5076705;28;41429;-81
2024/03/03 01:10:14;;;;;;;11.83;8.27;;;;;;;6.58;90.93;97389.50;5093978;28;40928;-81
2024/03/03 01:12:42;;;;;;;11.17;7.87;;;;;;;6.47;90.44;97368.38;5094635;28;42638;-80
2024/03/03 01:15:10;;;;;;;9.83;7.00;;;;;;;6.53;90.36;97370.59;5093678;28;42744;-82
2024/03/03 01:17:38;;;;;;;10.70;7.40;;;;;;;6.51;90.34;97372.47;5076877;28;40659;-79
2024/03/03 01:20:07;;;;;;;13.83;9.07;;;;;;;6.50;91.06;97365.53;5076970;28;39049;-81
2024/03/03 01:22:34;;;;;;;15.97;10.23;;;;;;;6.47;90.99;97366.59;5076476;28;40475;-84
2024/03/03 01:25:02;;;;;;;12.47;8.53;;;;;;;6.37;91.07;97333.16;5097875;28;41577;-78
2024/03/03 01:27:31;;;;;;;11.93;8.40;;;;;;;6.41;90.97;97345.16;5102841;28;41127;-77
2024/03/03 01:29:59;;;;;;;11.30;8.30;;;;;;;6.48;90.83;97346.38;5093287;28;41432;-83
2024/03/03 01:32:27;;;;;;;13.97;9.30;;;;;;;6.47;91.49;97348.19;5076833;28;41482;-80
2024/03/03 01:34:55;;;;;;;14.17;8.97;;;;;;;6.49;92.29;97348.91;5094918;28;42801;-81
2024/03/03 01:37:23;;;;;;;12.93;9.17;;;;;;;6.53;91.80;97348.72;5093535;28;42172;-81
2024/03/03 01:39:51;;;;;;;12.60;9.00;;;;;;;6.56;91.37;97354.56;5076185;28;38857;-79
2024/03/03 01:42:18;;;;;;;12.37;8.73;;;;;;;6.60;90.93;97355.22;5094403;28;42694;-82
2024/03/03 01:44:48;;;;;;;11.00;8.40;;;;;;;6.63;90.45;97361.09;5093456;28;43775;-82
2024/03/03 01:47:15;;;;;;;12.00;8.10;;;;;;;6.63;90.43;97360.25;5092812;28;43201;-85
2024/03/03 01:49:47;;;;;;;10.87;8.37;;;;;;;6.53;90.21;97352.19;5076394;28;40730;-81
2024/03/03 01:52:15;;;;;;;13.03;9.27;;;;;;;6.56;89.68;97357.19;5092456;28;42425;-79
2024/03/03 01:54:43;;;;;;;10.23;7.27;;;;;;;6.60;89.20;97371.81;5076353;28;41787;-81
2024/03/03 01:57:14;;;;;;;11.10;8.23;;;;;;;6.57;89.22;97376.44;5092754;28;43202;-79
2024/03/03 01:59:43;;;;;;;9.60;6.87;;;;;;;6.43;88.80;97359.84;5076129;28;38990;-84
2024/03/03 02:02:12;;;;;;;10.50;6.93;;;;;;;6.48;88.41;97383.19;5092992;28;41544;-82
2024/03/03 02:04:40;;;;;;;10.37;6.97;;;;;;;6.43;88.42;97385.31;5093135;28;42841;-79
2024/03/03 02:07:08;;;;;;;9.57;6.53;;;;;;;6.35;88.18;97383.22;5094078;28;42322;-79
2024/03/03 02:09:36;;;;;;;9.70;6.87;;;;;;;6.31;87.97;97375.63;5075932;28;39216;-78
2024/03/03 02:12:04;;;;;;;11.03;7.93;;;;;;;6.18;88.24;97362.53;5093840;28;42777;-81
2024/03/03 02:14:35;;;;;;;10.73;7.40;;;;;;;6.21;88.68;97358.81;5092518;28;42847;-79
2024/03/03 02:17:03;;;;;;;13.67;9.10;;;;;;;6.17;90.91;97350.31;5092345;28;43322;-82
2024/03/03 02:19:35;;;;;;;14.30;9.07;;;;;;;6.11;90.70;97354.19;5092887;28;38775;-80
2024/03/03 02:22:04;;;;;;;14.37;9.53;;;;;;;6.12;94.05;97350.63;5075413;28;43540;-79
2024/03/03 02:24:32;;;;;;;14.27;9.67;;;;;;;6.10;93.69;97347.25;5093763;28;43741;-82
2024/03/03 02:27:00;;;;;;;12.87;8.60;;;;;;;6.12;94.49;97342.75;5093341;28;42504;-79
2024/03/03 02:29:29;;;;;;;13.27;8.83;;;;;;;6.02;95.70;97323.31;5075581;28;40863;-78
2024/03/03 02:31:57;;;;;;;12.03;8.47;;;;;;;6.12;94.94;97347.16;5075272;28;40238;-82
2024/03/03 02:34:26;;;;;;;14.10;9.30;;;;;;;6.13;95.43;97340.97;5092174;28;45113;-78
2024/03/03 02:36:53;;;;;;;12.47;8.17;;;;;;;6.07;96.45;97334.31;5075177;28;41805;-84
2024/03/03 02:39:22;;;;;;;14.60;9.13;;;;;;;6.13;96.76;97341.81;5093570;28;41234;-79
2024/03/03 02:41:50;;;;;;;12.47;9.07;;;;;;;6.12;97.18;97340.13;5093396;28;41757;-80
2024/03/03 02:44:17;;;;;;;12.50;8.83;;;;;;;6.12;98.94;97332.22;5075887;28;42645;-80
2024/03/03 02:46:45;;;;;;;14.40;9.53;;;;;;;6.11;100.00;97341.06;5074760;28;41368;-83
2024/03/03 02:49:12;;;;;;;15.43;9.67;;;;;;;6.10;100.00;97325.41;5075317;28;38564;-82
2024/03/03 02:51:40;;;;;;;14.37;9.97;;;;;;;5.97;100.00;97293.88;5091362;28;41109;-81
2024/03/03 02:54:07;;;;;;;13.67;9.13;;;;;;;6.08;100.00;97314.97;5075263;28;41624;-79
2024/03/03 02:56:36;;;;;;;15.27;10.37;;;;;;;6.02;100.00;97306.69;5091829;28;42292;-83
2024/03/03 02:59:04;;;;;;;13.43;9.47;;;;;;;6.06;100.00;97303.72;5092256;28;41008;-86
2024/03/03 03:01:31;;;;;;;13.17;9.50;;;;;;;6.05;100.00;97302.06;5092236;28;42450;-81
2024/03/03 03:03:59;;;;;;;14.80;9.13;;;;;;;6.02;100.00;97301.44;5092229;28;42819;-80
2024/03/03 03:06:26;;;;;;;13.97;10.10;;;;;;;5.99;99.52;97297.22;5091770;28;41915;-78
2024/03/03 03:08:54;;;;;;;13.23;9.10;;;;;;;5.97;99.60;97306.16;5092114;28;39985;-80
2024/03/03 03:11:21;;;;;;;13.13;9.00;;;;;;;5.94;99.82;97303.75;5092408;28;42790;-81
2024/03/03 03:13:50;;;;;;;12.63;8.93;;;;;;;5.93;98.90;97308.19;5074618;28;43480;-82
2024/03/03 03:16:18;;;;;;;13.23;8.40;;;;;;;5.92;98.90;97309.13;5092549;28;42649;-84
2024/03/03 03:18:45;;;;;;;13.90;9.07;;;;;;;5.91;98.39;97304.81;5075135;28;38825;-81
2024/03/03 03:21:13;;;;;;;12.13;8.77;;;;;;;5.89;98.36;97306.69;5074496;28;40999;-81
2024/03/03 03:23:40;;;;;;;15.50;10.03;;;;;;;5.88;98.45;97307.63;5074958;28;41746;-82
2024/03/03 03:26:08;;;;;;;13.40;10.17;;;;;;;5.76;97.88;97292.69;5092556;28;42236;-80
2024/03/03 03:28:35;;;;;;;12.63;9.33;;;;;;;5.86;97.36;97312.13;5092749;28;41039;-82
2024/03/03 03:31:05;;;;;;;10.60;7.70;;;;;;;5.87;97.53;97320.84;5091648;28;41627;-77
2024/03/03 03:33:33;;;;;;;11.43;8.00;;;;;;;5.84;97.40;97324.50;5091816;28;43154;-83
2024/03/03 03:36:00;;;;;;;11.20;7.93;;;;;;;5.73;96.83;97301.59;5074308;28;43767;-82
2024/03/03 03:38:28;;;;;;;12.20;8.90;;;;;;;5.65;97.37;97292.56;5091672;28;39604;-80
2024/03/03 03:40:55;;;;;;;14.53;9.10;;;;;;;5.80;100.00;97312.56;5091148;28;41211;-79
2024/03/03 03:43:23;;;;;;;12.83;9.47;;;;;;;5.62;97.96;97288.38;5092550;28;43758;-81
2024/03/03 03:45:50;;;;;;;13.23;9.13;;;;;;;5.80;99.16;97307.31;5073887;28;41344;-80
2024/03/03 03:48:20;;;;;;;13.17;9.27;;;;;;;5.77;99.39;97302.25;5091572;28;38903;-80
2024/03/03 03:50:47;;;;;;;15.87;8.90;;;;;;;5.81;98.41;97308.16;5074301;28;42630;-80
2024/03/03 03:53:15;;;;;;;12.40;8.50;;;;;;;5.82;97.92;97318.50;5074352;28;41679;-82
2024/03/03 03:55:42;;;;;;;13.23;9.03;;;;;;;5.81;97.82;97318.66;5092148;28;42001;-83
2024/03/03 03:58:10;;;;;;;12.07;8.37;;;;;;;5.80;97.20;97317.81;5074619;28;39017;-82
2024/03/03 04:00:37;;;;;;;14.67;8.93;;;;;;;5.80;96.97;97317.81;5091018;28;41758;-79
2024/03/03 04:03:06;;;;;;;12.23;8.33;;;;;;;5.80;96.76;97320.44;5092189;28;44276;-83
2024/03/03 04:05:34;;;;;;;12.63;8.30;;;;;;;5.81;96.54;97324.72;5094860;28;42463;-80
2024/03/03 04:08:02;;;;;;;14.37;8.40;;;;;;;5.82;96.19;97330.81;5095007;28;40019;-82
2024/03/03 04:10:29;;;;;;;10.13;7.17;;;;;;;5.80;95.73;97330.94;5084402;28;40946;-78
2024/03/03 04:12:57;;;;;;;12.03;8.23;;;;;;;5.80;95.80;97330.94;5099475;28;44272;-81
2024/03/03 04:15:25;;;;;;;12.63;8.43;;;;;;;5.80;96.91;97328.31;5078180;28;42558;-83
2024/03/03 04:17:51;;;;;;;11.30;8.30;;;;;;;5.80;96.18;97328.31;5078767;28;40612;-82
2024/03/03 04:20:19;;;;;;;14.43;8.87;;;;;;;5.81;95.97;97329.16;5095103;28;41675;-83
2024/03/03 04:22:48;;;;;;;11.43;8.17;;;;;;;5.78;96.14;97332.81;5077812;28;43164;-79
2024/03/03 04:25:16;;;;;;;13.07;8.27;;;;;;;5.78;95.63;97327.56;5078025;28;43679;-81
2024/03/03 04:27:43;;;;;;;12.47;8.20;;;;;;;5.78;96.22;97330.19;5094284;28;38977;-82
2024/03/03 04:30:11;;;;;;;12.97;8.83;;;;;;;5.77;96.13;97331.13;5094449;28;42678;-82
2024/03/03 04:32:39;;;;;;;13.07;8.73;;;;;;;5.75;95.93;97326.00;5094535;28;41378;-80
2024/03/03 04:35:07;;;;;;;13.13;7.80;;;;;;;5.74;95.33;97316.44;5095689;28;42877;-80
2024/03/03 04:37:35;;;;;;;12.30;8.07;;;;;;;5.73;95.81;97321.78;5093949;28;38936;-80
2024/03/03 04:40:05;;;;;;;12.07;7.73;;;;;;;5.73;95.48;97321.78;5077504;28;43298;-82
2024/03/03 04:42:32;;;;;;;11.70;8.47;;;;;;;5.72;95.48;97325.34;5077432;28;43602;-83
2024/03/03 04:45:00;;;;;;;13.17;9.03;;;;;;;5.67;96.16;97311.69;5077466;28;41060;-81
2024/03/03 04:47:28;;;;;;;12.23;8.57;;;;;;;5.67;95.59;97325.66;5094922;28;40067;-81
2024/03/03 04:49:55;;;;;;;15.30;9.87;;;;;;;5.48;96.86;97300.72;5095558;28;41722;-82
2024/03/03 04:52:23;;;;;;;14.00;9.80;;;;;;;5.62;97.46;97329.53;5094370;28;43825;-80
2024/03/03 04:54:50;;;;;;;12.63;9.07;;;;;;;5.67;97.32;97333.56;5094255;28;42033;-81
2024/03/03 04:57:19;;;;;;;14.97;9.33;;;;;;;5.68;96.87;97327.34;5094122;28;38525;-83
2024/03/03 04:59:47;;;;;;;11.83;8.30;;;;;;;5.67;96.33;97333.56;5094344;28;41802;-81
2024/03/03 05:02:14;;;;;;;13.57;9.20;;;;;;;5.64;96.95;97327.66;5094550;28;42874;-78
2024/03/03 05:04:42;;;;;;;15.90;9.00;;;;;;;5.63;97.14;97336.47;5095027;28;42065;-83
2024/03/03 05:07:09;;;;;;;13.37;8.53;;;;;;;5.60;97.51;97331.41;5094612;28;40290;-76
2024/03/03 05:09:38;;;;;;;13.03;8.83;;;;;;;5.58;97.94;97334.16;5077166;28;40738;-79
2024/03/03 05:12:07;;;;;;;14.43;9.87;;;;;;;5.50;99.12;97327.72;5093716;28;44320;-82
2024/03/03 05:14:36;;;;;;;14.93;10.53;;;;;;;5.54;98.82;97342.34;5094177;28;42222;-79
2024/03/03 05:17:04;;;;;;;14.70;9.63;;;;;;;5.51;98.55;97342.53;5093703;28;38930;-79
2024/03/03 05:19:31;;;;;;;12.63;8.63;;;;;;;5.50;98.48;97340.84;5094833;28;41497;-82
2024/03/03 05:21:59;;;;;;;13.93;9.03;;;;;;;5.50;98.38;97348.72;5093568;28;44152;-80
2024/03/03 05:24:26;;;;;;;17.23;10.47;;;;;;;5.30;99.22;97314.16;5093758;28;42210;-80
2024/03/03 05:26:54;;;;;;;15.30;9.60;;;;;;;5.14;98.94;97292.47;5076459;28;39027;-79
2024/03/03 05:29:21;;;;;;;14.03;9.33;;;;;;;5.41;99.08;97334.44;5093484;28;41678;-81
2024/03/03 05:31:50;;;;;;;16.10;10.67;;;;;;;5.47;98.87;97341.06;5093442;28;43487;-79
2024/03/03 05:34:18;;;;;;;12.57;9.07;;;;;;;5.48;98.34;97343.59;5093336;28;42029;-83
2024/03/03 05:36:47;;;;;;;12.90;9.13;;;;;;;5.49;98.32;97349.66;5093362;28;40952;-83
2024/03/03 05:39:16;;;;;;;12.30;8.57;;;;;;;5.49;97.76;97344.41;5094245;28;41606;-81
2024/03/03 05:41:43;;;;;;;13.97;9.17;;;;;;;5.49;97.86;97344.41;5076121;28;42750;-85
2024/03/03 05:44:11;;;;;;;14.63;9.33;;;;;;;5.45;97.93;97335.91;5094542;28;42929;-83
2024/03/03 05:46:39;;;;;;;14.23;10.00;;;;;;;5.48;99.24;97343.59;5092762;28;40778;-77
2024/03/03 05:49:07;;;;;;;14.67;10.23;;;;;;;5.50;99.35;97343.47;5093133;28;41915;-81
2024/03/03 05:51:36;;;;;;;14.90;9.70;;;;;;;5.51;98.59;97348.63;5093053;28;43710;-82
2024/03/03 05:54:04;;;;;;;16.03;9.97;;;;;;;5.53;98.43;97348.53;5075373;28;42169;-81
2024/03/03 05:56:32;;;;;;;15.50;9.37;;;;;;;5.54;98.48;97352.84;5091975;28;41305;-83
2024/03/03 05:58:59;;;;;;;13.43;9.50;;;;;;;5.55;97.99;97349.28;5092435;28;42420;-83
2024/03/03 06:01:28;;;;;;;15.43;9.83;;;;;;;5.55;97.97;97349.28;5075413;28;43398;-83
2024/03/03 06:03:55;;;;;;;15.37;10.23;;;;;;;5.57;98.75;97348.22;5093429;28;42543;-82
2024/03/03 06:06:24;;;;;;;15.10;9.80;;;;;;;5.61;98.41;97351.47;5092424;28;39167;-80
2024/03/03 06:08:52;;;;;;;15.37;9.93;;;;;;;5.62;98.02;97351.38;5092206;28;41323;-82
2024/03/03 06:11:19;;;;;;;14.60;9.33;;;;;;;5.65;97.91;97355.59;5091957;28;41656;-82
2024/03/03 06:13:47;;;;;;;14.37;9.77;;;;;;;5.68;97.78;97355.41;5092494;28;42270;-80
2024/03/03 06:16:14;;;;;;;14.80;9.57;;;;;;;5.72;97.34;97352.44;5074756;28;40554;-81
2024/03/03 06:18:42;;;;;;;13.87;10.03;;;;;;;5.77;97.21;97349.53;5093467;28;42547;-77
2024/03/03 06:21:09;;;;;;;14.97;9.57;;;;;;;5.81;97.43;97356.22;5091939;28;43293;-80
2024/03/03 06:23:38;;;;;;;11.30;8.33;;;;;;;5.86;97.00;97354.16;5075407;28;42555;-82
2024/03/03 06:26:06;;;;;;;13.17;8.83;;;;;;;5.93;96.70;97354.63;5091173;28;41366;-82
2024/03/03 06:28:33;;;;;;;15.40;10.20;;;;;;;5.98;96.81;97363.88;5092752;28;41989;-81
2024/03/03 06:31:01;;;;;;;14.33;8.87;;;;;;;6.06;96.22;97355.44;5092747;28;43633;-80
2024/03/03 06:33:29;;;;;;;13.40;8.93;;;;;;;6.13;96.12;97357.56;5093473;28;42961;-77
2024/03/03 06:35:56;;;;;;;13.67;9.33;;;;;;;6.21;96.19;97354.41;5092908;28;41371;-78
2024/03/03 06:38:24;;;;;;;12.00;8.40;;;;;;;6.31;95.69;97357.22;5092984;28;41593;-83
2024/03/03 06:40:53;;;;;;;14.53;10.07;;;;;;;6.37;95.30;97348.94;5074626;28;44907;-79
2024/03/03 06:43:21;;;;;;;14.90;9.57;;;;;;;6.45;95.48;97343.97;5093262;28;42214;-81
2024/03/03 06:45:48;;;;;;;16.30;10.57;;;;;;;6.54;95.44;97345.13;5092300;28;39767;-80
2024/03/03 06:48:16;;;;;;;16.17;10.93;;;;;;;6.49;95.69;97332.28;5089807;28;42299;-83
2024/03/03 06:50:43;;;;;;;13.97;10.23;;;;;;;6.69;95.76;97352.75;5091542;28;43173;-84
2024/03/03 06:53:11;;;;;;;15.43;9.83;;;;;;;6.77;95.24;97353.06;5074773;28;41831;-81
2024/03/03 06:55:39;;;;;;;16.87;10.80;;;;;;;6.91;95.38;97359.16;5091554;28;40935;-81
2024/03/03 06:58:08;;;;;;;16.07;10.30;;;;;;;7.10;96.13;97362.97;5092970;28;42098;-82
2024/03/03 07:00:35;;;;;;;17.00;11.03;;;;;;;7.55;95.14;97356.09;5091119;28;43083;-81
2024/03/03 07:03:29;;;;;;;14.27;10.03;;;;;;;8.14;93.08;97361.34;5091612;28;42468;-81
2024/03/03 07:05:57;;;;;;;14.47;10.23;;;;;;;8.76;90.12;97358.28;5092230;28;39721;-80
2024/03/03 07:08:24;;;;;;;12.50;9.90;;;;;;;9.55;86.19;97370.31;5092025;28;40943;-83
2024/03/03 07:10:52;;;;;;;15.07;10.33;;;;;;;10.47;81.69;97373.25;5073928;28;42667;-79
2024/03/03 07:13:21;;;;;;;10.80;9.23;;;;;;;11.84;75.95;97389.25;5092666;28;42220;-81
2024/03/03 07:15:48;;;;;;;12.77;9.73;;;;;;;12.82;70.66;97393.41;5074566;28;38601;-83
2024/03/03 07:18:15;;;;;;;12.57;9.37;;;;;;;13.73;65.09;97413.78;5091353;28;43183;-79
2024/03/03 07:20:43;;;;;;;12.03;9.83;;;;;;;14.32;62.36;97431.84;5092003;28;43854;-79
2024/03/03 07:23:10;;;;;;;12.97;9.07;;;;;;;14.84;60.03;97428.38;5091077;28;41812;-86
2024/03/03 07:25:38;;;;;;;12.27;9.77;;;;;;;14.85;59.33;97428.22;5073863;28;38872;-81
2024/03/03 07:28:06;;;;;;;12.93;9.63;;;;;;;14.35;59.19;97407.53;5090944;28;41781;-81
2024/03/03 07:30:34;;;;;;;11.00;8.50;;;;;;;14.73;57.65;97424.97;5090009;28;41782;-83
2024/03/03 07:33:02;;;;;;;11.13;9.00;;;;;;;16.13;53.85;97442.25;5092088;28;42187;-81
2024/03/03 07:35:30;;;;;;;13.67;9.50;;;;;;;16.96;52.38;97443.91;5090826;28;38957;-82
2024/03/03 07:37:57;;;;;;;13.13;9.87;;;;;;;17.80;49.62;97454.03;5073772;28;42896;-81
2024/03/03 07:40:27;;;;;;;11.93;9.50;;;;;;;17.13;50.11;97430.34;5090856;28;43811;-82
2024/03/03 07:42:55;;;;;;;10.17;8.10;;;;;;;16.58;51.05;97435.56;5091825;28;42461;-79
2024/03/03 07:45:22;;;;;;;11.80;8.90;;;;;;;15.93;52.59;97424.88;5073908;28;39412;-83
2024/03/03 07:47:51;;;;;;;11.13;9.10;;;;;;;15.28;54.30;97419.28;5090190;28;43451;-84
2024/03/03 07:50:21;;;;;;;11.40;9.50;;;;;;;14.73;55.16;97403.66;5074902;28;20231;-81
2024/03/03 07:52:48;;;;;;;11.70;9.47;;;;;;;14.29;56.17;97399.34;5073643;28;42369;-83
2024/03/03 07:55:16;;;;;;;16.13;10.67;;;;;;;13.85;57.48;97401.94;5092245;28;40031;-82
2024/03/03 07:57:43;;;;;;;14.23;11.43;;;;;;;13.17;59.09;97385.59;5091138;28;41917;-85
2024/03/03 08:00:12;;;;;;;11.90;9.03;;;;;;;12.86;61.08;97376.19;5073587;28;41321;-84
2024/03/03 08:02:42;;;;;;;14.57;9.63;;;;;;;12.63;63.02;97365.09;5090416;28;43451;-80
2024/03/03 08:05:11;;;;;;;14.00;10.87;;;;;;;12.65;64.10;97341.03;5073805;28;40023;-81
2024/03/03 08:07:39;;;;;;;16.37;10.67;;;;;;;13.74;61.86;97375.56;5090336;28;40728;-81
2024/03/03 08:10:07;;;;;;;14.40;10.87;;;;;;;14.42;59.44;97394.47;5073545;28;43683;-85
2024/03/03 08:12:35;;;;;;;11.87;9.00;;;;;;;14.76;57.97;97396.34;5073007;28;41675;-81
2024/03/03 08:15:02;;;;;;;14.50;9.93;;;;;;;14.58;58.28;97386.59;5090088;28;40256;-80
2024/03/03 08:17:30;;;;;;;12.43;9.67;;;;;;;14.60;57.87;97373.94;5091316;28;42868;-81
2024/03/03 08:19:58;;;;;;;12.50;9.77;;;;;;;15.27;58.32;97396.28;5091415;28;42662;-84
2024/03/03 08:22:26;;;;;;;12.63;9.70;;;;;;;17.22;53.24;97377.63;5090011;28;41359;-80
2024/03/03 08:24:54;;;;;;;12.90;9.93;;;;;;;20.09;46.35;97445.28;5091446;28;40310;-80
2024/03/03 08:27:22;;;;;;;11.33;9.40;;;;;;;22.80;42.79;97457.72;5089872;28;41957;-81
2024/03/03 08:29:48;;;;;;;10.10;8.95;;;;;;;24.84;39.83;97477.88;5090327;28;41809;-80
2024/03/03 08:32:16;;;;;;;11.48;9.85;;;;;;;26.37;35.43;97493.22;5073144;28;41764;-80
2024/03/03 08:34:43;;;;;;;10.07;9.02;;;;;;;26.98;35.79;97492.16;5091269;28;40119;-82
2024/03/03 08:37:11;;;;;;;9.95;9.05;;;;;;;26.09;36.51;97452.22;5090339;28;41617;-81
2024/03/03 08:39:40;;;;;;;11.57;10.07;;;;;;;25.55;35.56;97475.59;5073050;28;41664;-78
2024/03/03 08:42:08;;;;;;;11.50;10.13;;;;;;;25.03;35.04;97457.94;5073079;28;41868;-80
2024/03/03 08:44:35;;;;;;;11.55;10.10;;;;;;;26.27;33.79;97468.50;5089983;28;40199;-87
2024/03/03 08:47:02;;;;;;;11.48;10.35;;;;;;;27.87;30.31;97501.06;5089620;28;41383;-79
2024/03/03 08:49:29;;;;;;;12.88;10.27;;;;;;;29.39;28.63;97504.03;5090530;28;42656;-81
2024/03/03 08:51:58;;;;;;;11.07;9.50;;;;;;;31.10;27.33;97522.09;5093780;28;43101;-82
2024/03/03 08:54:25;;;;;;;9.60;8.60;;;;;;;32.21;27.22;97500.19;5094810;28;39368;-79
2024/03/03 08:56:54;;;;;;;9.43;8.52;;;;;;;32.67;25.37;97495.66;5093118;28;43359;-80
2024/03/03 08:59:22;;;;;;;9.98;8.98;;;;;;;32.60;25.59;97489.63;5093191;28;41734;-80
2024/03/03 09:01:49;;;;;;;12.15;9.45;;;;;;;32.60;25.75;97495.13;5092879;28;41214;-83
2024/03/03 09:04:17;;;;;;;9.77;8.73;;;;;;;33.33;24.26;97506.78;5093606;28;39875;-79
2024/03/03 09:06:45;;;;;;;9.55;8.63;;;;;;;33.91;24.09;97499.84;5076320;28;40537;-80
2024/03/03 09:09:16;;;;;;;9.80;8.75;;;;;;;34.63;22.56;97494.91;5076091;28;41627;-83
2024/03/03 09:11:44;;;;;;;10.32;9.27;;;;;;;35.55;22.23;97495.94;5092688;28;41975;-82
2024/03/03 09:14:13;;;;;;;9.85;8.95;;;;;;;36.42;20.98;97495.88;5076064;28;39332;-79
2024/03/03 09:16:40;;;;;;;10.25;9.25;;;;;;;37.06;20.89;97489.75;5092392;28;41549;-84
2024/03/03 09:19:08;;;;;;;9.15;8.35;;;;;;;37.95;20.43;97501.50;5094114;28;42997;-83
2024/03/03 09:21:36;;;;;;;9.57;8.68;;;;;;;38.37;19.30;97477.44;5075864;28;43690;-84
2024/03/03 09:24:04;;;;;;;9.93;8.98;;;;;;;38.96;18.81;97494.97;5092968;28;39112;-81
2024/03/03 09:26:31;;;;;;;9.57;8.70;;;;;;;39.17;19.54;97485.09;5092632;28;42223;-80
2024/03/03 09:28:59;;;;;;;9.88;8.98;;;;;;;38.95;17.81;97476.75;5092753;28;43923;-81
2024/03/03 09:31:28;;;;;;;9.45;8.65;;;;;;;38.84;19.01;97480.84;5093839;28;42545;-81
2024/03/03 09:33:55;;;;;;;9.23;8.38;;;;;;;39.13;17.92;97487.66;5075961;28;39994;-82
2024/03/03 09:36:23;;;;;;;8.85;8.13;;;;;;;39.70;17.54;97489.84;5093729;28;41826;-85
2024/03/03 09:38:50;;;;;;;9.82;8.90;;;;;;;39.89;16.88;97484.94;5093375;28;42379;-80
2024/03/03 09:41:18;;;;;;;10.30;9.30;;;;;;;39.33;17.27;97474.44;5092348;28;42562;-80
2024/03/03 09:43:51;;;;;;;8.57;7.78;;;;;;;38.02;18.21;97460.44;5076145;28;38993;-82
2024/03/03 09:46:19;;;;;;;12.32;9.13;;;;;;;35.86;19.85;97447.72;5090749;28;42714;-83
2024/03/03 09:48:52;;;;;;;10.57;9.57;;;;;;;33.57;21.53;97446.66;5093684;28;43784;-80
2024/03/03 09:51:20;;;;;;;10.65;9.57;;;;;;;31.94;23.20;97437.31;5091638;28;43183;-85
2024/03/03 09:53:47;;;;;;;11.50;9.90;;;;;;;30.82;23.96;97422.00;5092632;28;39958;-84
2024/03/03 09:56:15;;;;;;;10.03;9.03;;;;;;;30.20;25.63;97417.81;5093193;28;42824;-82
2024/03/03 09:58:42;;;;;;;10.63;8.97;;;;;;;29.49;26.59;97411.44;5092211;28;43693;-79
2024/03/03 10:01:12;;;;;;;11.50;9.40;;;;;;;29.02;26.82;97394.63;5091850;28;42414;-84
2024/03/03 10:03:42;;;;;;;10.20;9.10;;;;;;;30.03;25.66;97389.78;5092322;28;42184;-82
2024/03/03 10:06:14;;;;;;;10.85;9.57;;;;;;;32.34;23.77;97426.53;5093364;28;41695;-83
2024/03/03 10:08:43;;;;;;;9.38;8.20;;;;;;;34.32;21.25;97440.13;5092295;28;42281;-86
2024/03/03 10:11:16;;;;;;;8.65;7.75;;;;;;;35.37;20.13;97433.31;5092597;28;41956;-83
2024/03/03 10:13:45;;;;;;;9.20;7.88;;;;;;;36.13;19.88;97424.25;5091894;28;38769;-82
2024/03/03 10:16:14;;;;;;;8.18;7.38;;;;;;;37.00;19.39;97435.72;5074612;28;41563;-83
2024/03/03 10:18:41;;;;;;;8.20;7.40;;;;;;;38.00;19.04;97418.44;5091820;28;41570;-83
2024/03/03 10:21:12;;;;;;;7.75;7.05;;;;;;;38.45;17.49;97438.00;5091504;28;41457;-82
2024/03/03 10:23:40;;;;;;;7.97;7.18;;;;;;;38.75;17.36;97433.72;5091755;28;40521;-83
2024/03/03 10:26:08;;;;;;;7.22;6.60;;;;;;;39.66;17.58;97427.88;5092936;28;42691;-84
2024/03/03 10:28:36;;;;;;;8.23;7.20;;;;;;;40.51;16.56;97434.88;5092527;28;42912;-81
2024/03/03 10:31:11;;;;;;;8.05;7.35;;;;;;;41.14;16.03;97441.81;5091528;28;43199;-82
2024/03/03 10:33:53;;;;;;;8.52;7.75;;;;;;;42.10;14.62;97452.38;5091915;28;40415;-87
2024/03/03 10:36:23;;;;;;;8.15;7.38;;;;;;;42.45;15.22;97439.09;5090605;28;43129;-83
2024/03/03 10:38:52;;;;;;;7.88;7.13;;;;;;;42.60;15.15;97443.25;5074612;28;43008;-80
2024/03/03 10:41:19;;;;;;;8.15;7.43;;;;;;;42.34;14.71;97439.78;5074484;28;41597;-81
2024/03/03 10:43:47;;;;;;;7.82;7.15;;;;;;;41.84;14.70;97437.72;5092702;28;40053;-82
2024/03/03 10:46:14;;;;;;;7.85;7.15;;;;;;;41.09;15.49;97433.59;5091079;28;41797;-87
2024/03/03 10:48:42;;;;;;;9.02;7.55;;;;;;;40.12;15.68;97428.25;5091586;28;43326;-81
2024/03/03 10:51:09;;;;;;;7.03;6.43;;;;;;;39.79;16.88;97421.44;5092385;28;42137;-84
2024/03/03 10:53:38;;;;;;;8.25;7.45;;;;;;;39.64;16.38;97421.84;5092949;28;40204;-85
2024/03/03 10:56:06;;;;;;;7.18;6.47;;;;;;;38.86;16.60;97423.22;5091140;28;41270;-83
2024/03/03 10:58:35;;;;;;;7.65;6.90;;;;;;;37.81;16.90;97412.22;5091254;28;42995;-81
2024/03/03 11:01:05;;;;;;;7.18;6.53;;;;;;;37.95;17.42;97399.22;5074182;28;41303;-84
2024/03/03 11:03:34;;;;;;;7.10;6.40;;;;;;;37.94;17.32;97400.34;5074182;28;40547;-81
2024/03/03 11:06:05;;;;;;;8.20;7.40;;;;;;;36.93;17.54;97393.91;5090975;28;42206;-83
2024/03/03 11:08:34;;;;;;;8.05;7.35;;;;;;;36.53;17.94;97385.09;5091058;28;43668;-84
2024/03/03 11:11:07;;;;;;;8.18;6.88;;;;;;;36.55;17.75;97393.91;5090631;28;42281;-82
2024/03/03 11:13:42;;;;;;;7.78;6.97;;;;;;;36.91;18.70;97363.00;5090767;28;38925;-80
2024/03/03 11:16:12;;;;;;;7.20;6.45;;;;;;;37.99;17.85;97378.09;5088999;28;41972;-82
2024/03/03 11:18:48;;;;;;;7.43;6.72;;;;;;;39.22;17.76;97376.09;5089263;28;42803;-79
2024/03/03 11:21:20;;;;;;;7.18;6.47;;;;;;;40.18;16.36;97371.47;5089742;28;42158;-85
2024/03/03 11:23:49;;;;;;;7.30;6.50;;;;;;;40.09;15.89;97387.28;5088150;28;41037;-86
2024/03/03 11:26:26;;;;;;;6.95;6.32;;;;;;;40.11;16.16;97384.19;5090324;28;41824;-83
2024/03/03 11:28:58;;;;;;;7.63;6.93;;;;;;;41.19;16.18;97374.94;5073785;28;43042;-83
2024/03/03 11:31:26;;;;;;;6.93;6.30;;;;;;;41.98;14.76;97377.16;5088466;28;42892;-82
2024/03/03 11:33:55;;;;;;;7.35;6.55;;;;;;;42.39;14.53;97375.63;5091103;28;39993;-80
2024/03/03 11:36:23;;;;;;;7.78;7.07;;;;;;;42.34;14.26;97375.78;5090500;28;41609;-82